Time;durP1;ratioP1;P1;durP2;ratioP2;P2;SDS_P1;SDS_P2;PMS_P1;PMS_P2;Temp;Humidity;BMP_temperature;BMP_pressure;BME280_temperature;BME280_humidity;BME280_pressure;Samples;Min_cycle;Max_cycle;Signal;HPM_P1;HPM_P2
2022/04/12 00:00:15;;;;;;;1.48;0.80;;;;;;;27.06;29.11;96324.69;4911652;28;20032;-32
2022/04/12 00:02:41;;;;;;;1.95;0.60;;;;;;;27.05;29.12;96325.66;4900046;28;20625;-33
2022/04/12 00:05:07;;;;;;;1.38;0.60;;;;;;;27.05;28.99;96323.03;4905301;28;20126;-31
2022/04/12 00:07:32;;;;;;;1.20;0.70;;;;;;;27.03;29.06;96325.75;4903812;28;20034;-32
2022/04/12 00:09:57;;;;;;;1.85;0.70;;;;;;;27.04;29.05;96327.44;4906052;28;20030;-31
2022/04/12 00:12:23;;;;;;;2.35;0.80;;;;;;;27.04;29.03;96321.34;4903542;28;20506;-32
2022/04/12 00:14:49;;;;;;;1.42;0.68;;;;;;;27.03;29.07;96325.75;4900278;28;20416;-30
2022/04/12 00:19:59;;;;;;;1.55;0.60;;;;;;;27.03;29.09;96325.75;4918079;28;20054;-31
2022/04/12 00:22:24;;;;;;;0.57;0.47;;;;;;;27.03;28.83;96319.66;4921185;28;20031;-30
2022/04/12 00:24:50;;;;;;;1.38;0.60;;;;;;;27.03;29.26;96325.75;4920990;28;20276;-34
2022/04/12 00:27:15;;;;;;;1.45;0.68;;;;;;;27.02;28.97;96324.06;4923974;28;20485;-30
2022/04/12 00:29:40;;;;;;;1.88;0.60;;;;;;;27.02;28.97;96324.06;4921289;28;20285;-31
2022/04/12 00:32:06;;;;;;;1.05;0.55;;;;;;;27.01;29.20;96322.38;4921779;28;20071;-33
2022/04/12 00:34:32;;;;;;;1.50;0.82;;;;;;;27.01;28.91;96322.38;4920560;28;20059;-29
2022/04/12 00:36:57;;;;;;;0.77;0.57;;;;;;;27.01;29.07;96317.13;4919536;28;21217;-31
2022/04/12 00:39:23;;;;;;;2.08;0.63;;;;;;;27.01;29.14;96319.75;4922033;28;20646;-32
2022/04/12 00:41:48;;;;;;;1.10;0.60;;;;;;;27.01;29.05;96325.03;4914903;28;20035;-32
2022/04/12 00:44:14;;;;;;;2.72;0.60;;;;;;;27.00;28.95;96315.41;4916069;28;20038;-30
2022/04/12 00:46:39;;;;;;;0.63;0.50;;;;;;;27.00;29.06;96315.41;4923726;28;20033;-31
2022/04/12 00:49:04;;;;;;;1.40;0.60;;;;;;;26.99;29.01;96313.75;4923767;28;20046;-31
2022/04/12 00:51:30;;;;;;;0.90;0.70;;;;;;;27.00;29.07;96320.69;4916388;28;20031;-30
2022/04/12 00:53:56;;;;;;;2.67;0.50;;;;;;;26.98;28.89;96314.69;4925372;28;20042;-31
2022/04/12 00:56:22;;;;;;;1.73;0.60;;;;;;;26.98;29.05;96310.28;4933133;28;20046;-31
2022/04/12 00:58:49;;;;;;;2.65;0.57;;;;;;;26.98;29.02;96312.91;4918034;28;20044;-35
2022/04/12 01:01:14;;;;;;;1.02;0.47;;;;;;;26.98;28.90;96317.31;4916814;28;20034;-32
2022/04/12 01:03:40;;;;;;;0.90;0.50;;;;;;;26.98;28.92;96317.31;4919010;28;20086;-29
2022/04/12 01:06:05;;;;;;;1.80;0.70;;;;;;;26.97;28.85;96310.38;4920900;28;20031;-30
2022/04/12 01:08:31;;;;;;;1.15;0.50;;;;;;;26.96;28.99;96311.34;4937249;28;20436;-29
2022/04/12 01:10:57;;;;;;;1.30;0.60;;;;;;;26.96;28.89;96314.78;4941948;28;20110;-29
2022/04/12 01:13:22;;;;;;;0.55;0.38;;;;;;;26.97;28.92;96307.75;4927137;28;20135;-31
2022/04/12 01:15:48;;;;;;;0.85;0.70;;;;;;;26.97;28.96;96307.75;4925540;28;20031;-32
2022/04/12 01:18:13;;;;;;;3.35;0.88;;;;;;;26.96;29.05;96298.19;4909379;28;20967;-38
2022/04/12 01:20:38;;;;;;;1.77;0.65;;;;;;;26.94;28.69;96302.66;4896683;28;20362;-36
2022/04/12 01:23:20;;;;;;;1.45;0.50;;;;;;;26.96;28.91;96308.72;4890969;28;20044;-32
2022/04/12 01:25:46;;;;;;;;;;;;;;;26.96;28.96;96299.00;4891235;28;20085;-34
2022/04/12 01:28:11;;;;;;;2.42;0.80;;;;;;;26.96;28.90;96299.00;4888917;28;20283;-30
2022/04/12 01:30:37;;;;;;;1.55;0.70;;;;;;;26.95;28.93;96297.34;4896058;28;20598;-30
2022/04/12 01:33:03;;;;;;;1.23;0.50;;;;;;;26.96;28.90;96300.81;4891440;28;20785;-31
2022/04/12 01:35:28;;;;;;;0.70;0.57;;;;;;;26.94;28.89;96306.19;4893847;28;20047;-30
2022/04/12 01:37:54;;;;;;;0.82;0.47;;;;;;;26.92;28.89;96291.41;4893936;28;20191;-31
2022/04/12 01:40:19;;;;;;;1.05;0.43;;;;;;;26.94;29.03;96302.66;4890564;28;20043;-28
2022/04/12 01:42:44;;;;;;;1.40;0.70;;;;;;;26.95;29.07;96301.75;4897196;28;20038;-32
2022/04/12 01:45:10;;;;;;;2.50;0.70;;;;;;;26.94;28.99;96300.03;4900053;28;20094;-30
2022/04/12 01:47:35;;;;;;;1.63;0.60;;;;;;;26.94;28.79;96300.03;4915323;28;20039;-28
2022/04/12 01:50:01;;;;;;;1.17;0.50;;;;;;;26.93;28.92;96304.44;4900149;28;20043;-30
2022/04/12 01:52:27;;;;;;;2.60;0.60;;;;;;;26.93;29.09;96303.59;4902659;28;20807;-30
2022/04/12 01:54:52;;;;;;;1.63;0.60;;;;;;;26.93;28.83;96303.59;4900561;28;20987;-28
2022/04/12 01:57:18;;;;;;;1.73;0.75;;;;;;;26.93;28.97;96306.25;4898543;28;20031;-31
2022/04/12 01:59:43;;;;;;;0.90;0.55;;;;;;;26.90;28.81;96293.28;4896713;28;20043;-30
2022/04/12 02:02:09;;;;;;;0.35;0.32;;;;;;;26.91;28.96;96294.97;4900956;28;20113;-35
2022/04/12 02:04:34;;;;;;;0.80;0.60;;;;;;;26.92;28.91;96296.66;4898254;28;20276;-28
2022/04/12 02:07:00;;;;;;;0.85;0.55;;;;;;;26.92;28.97;96288.78;4896494;28;20138;-29
2022/04/12 02:09:25;;;;;;;0.68;0.40;;;;;;;26.92;29.00;96291.41;4900332;28;20050;-31
2022/04/12 02:11:53;;;;;;;1.02;0.60;;;;;;;26.91;28.90;96290.56;4898146;28;20664;-30
2022/04/12 02:14:18;;;;;;;1.08;0.50;;;;;;;26.92;28.94;96294.03;4893079;28;20062;-32
2022/04/12 02:16:44;;;;;;;0.88;0.60;;;;;;;26.91;28.72;96292.34;4891033;28;20509;-29
2022/04/12 02:19:09;;;;;;;0.88;0.50;;;;;;;26.89;28.93;96281.94;4923852;28;20039;-29
2022/04/12 02:21:35;;;;;;;0.57;0.57;;;;;;;26.91;28.91;96289.69;4917300;28;20031;-29
2022/04/12 02:24:00;;;;;;;1.45;0.77;;;;;;;26.90;28.88;96286.25;4922711;28;20043;-29
2022/04/12 02:26:25;;;;;;;1.33;0.50;;;;;;;26.91;28.85;96289.69;4919964;28;20812;-29
2022/04/12 02:28:51;;;;;;;0.75;0.50;;;;;;;26.91;28.90;96292.34;4924727;28;20035;-30
2022/04/12 02:31:16;;;;;;;0.77;0.50;;;;;;;26.91;28.94;96284.44;4921961;28;20031;-32
2022/04/12 02:33:41;;;;;;;1.45;0.65;;;;;;;26.90;29.05;96280.13;4924080;28;20042;-32
2022/04/12 02:36:07;;;;;;;0.40;0.30;;;;;;;26.89;28.94;96289.84;4923346;28;20078;-32
2022/04/12 02:38:32;;;;;;;1.13;0.55;;;;;;;26.86;28.86;96276.88;4920542;28;20844;-31
2022/04/12 02:40:58;;;;;;;1.50;0.60;;;;;;;26.88;28.92;96281.09;4919257;28;20039;-28
2022/04/12 02:43:23;;;;;;;0.70;0.40;;;;;;;26.88;28.86;96285.50;4922002;28;20027;-28
2022/04/12 02:45:49;;;;;;;1.50;0.50;;;;;;;26.87;28.97;96284.66;4921005;28;20466;-30
2022/04/12 02:48:14;;;;;;;1.38;0.57;;;;;;;26.87;28.97;96282.03;4936136;28;20027;-30
2022/04/12 02:50:40;;;;;;;1.65;0.60;;;;;;;26.87;28.94;96287.31;4918692;28;20164;-32
2022/04/12 02:53:05;;;;;;;0.75;0.60;;;;;;;26.86;29.04;96282.97;4936444;28;20043;-31
2022/04/12 02:55:31;;;;;;;0.73;0.40;;;;;;;26.86;28.90;96279.50;4923446;28;20710;-30
2022/04/12 02:57:56;;;;;;;0.73;0.68;;;;;;;26.85;28.88;96273.41;4921800;28;20047;-29
2022/04/12 03:00:22;;;;;;;1.02;0.60;;;;;;;26.85;28.92;96276.03;4919844;28;21182;-30
2022/04/12 03:02:47;;;;;;;2.10;0.70;;;;;;;26.85;28.88;96268.13;4917281;28;20109;-32
2022/04/12 03:05:12;;;;;;;2.08;0.60;;;;;;;26.86;28.98;96276.88;4918297;28;21077;-31
2022/04/12 03:07:38;;;;;;;0.40;0.40;;;;;;;26.86;28.94;96272.44;4920430;28;20050;-32
2022/04/12 03:10:05;;;;;;;0.93;0.50;;;;;;;26.85;28.93;96276.03;4918209;28;20038;-30
2022/04/12 03:12:30;;;;;;;0.85;0.60;;;;;;;26.85;28.93;96275.19;4919785;28;20047;-30
2022/04/12 03:14:55;;;;;;;0.40;0.40;;;;;;;26.84;28.90;96271.72;4918083;28;20546;-27
2022/04/12 03:17:21;;;;;;;2.42;0.47;;;;;;;26.84;28.94;96269.09;4921919;28;20027;-29
2022/04/12 03:19:46;;;;;;;1.08;0.57;;;;;;;26.83;28.94;96272.66;4920025;28;20031;-33
2022/04/12 03:22:12;;;;;;;0.90;0.43;;;;;;;26.83;28.83;96272.66;4919469;28;20047;-29
2022/04/12 03:24:38;;;;;;;0.60;0.50;;;;;;;26.83;29.00;96266.56;4917911;28;20039;-29
2022/04/12 03:27:04;;;;;;;0.40;0.40;;;;;;;26.83;28.96;96274.44;4923512;28;20114;-28
2022/04/12 03:29:30;;;;;;;0.60;0.43;;;;;;;26.83;28.92;96269.19;4923068;28;20416;-32
2022/04/12 03:31:55;;;;;;;0.52;0.45;;;;;;;26.82;28.94;96265.72;4921636;28;20031;-29
2022/04/12 03:34:21;;;;;;;0.50;0.50;;;;;;;26.82;28.91;96265.72;4921560;28;20035;-28
2022/04/12 03:36:46;;;;;;;0.30;0.30;;;;;;;26.82;28.89;96255.22;4923572;28;20039;-31
2022/04/12 03:39:17;;;;;;;0.50;0.40;;;;;;;26.83;28.99;96271.81;4919184;28;20028;-29
2022/04/12 03:41:46;;;;;;;0.55;0.40;;;;;;;26.81;29.02;96266.66;4913547;28;20258;-29
2022/04/12 03:44:12;;;;;;;0.95;0.52;;;;;;;26.82;28.87;96270.13;4919213;28;20035;-32
2022/04/12 03:46:37;;;;;;;0.85;0.40;;;;;;;26.81;28.87;96279.78;4935419;28;20024;-30
2022/04/12 03:49:03;;;;;;;1.67;0.70;;;;;;;26.81;28.99;96274.53;4917316;28;20721;-29
2022/04/12 03:51:28;;;;;;;0.57;0.40;;;;;;;26.81;28.84;96274.53;4920215;28;20035;-28
2022/04/12 03:53:53;;;;;;;1.98;0.50;;;;;;;26.80;28.93;96270.22;4923703;28;21969;-31
2022/04/12 03:56:19;;;;;;;0.55;0.45;;;;;;;26.80;28.88;96264.13;4921238;28;20042;-30
2022/04/12 03:58:44;;;;;;;1.05;0.70;;;;;;;26.80;28.78;96272.84;4921688;28;20031;-33
2022/04/12 04:01:10;;;;;;;2.10;0.70;;;;;;;26.80;28.89;96272.84;4911133;28;20027;-30
2022/04/12 04:03:35;;;;;;;0.82;0.47;;;;;;;26.80;28.84;96270.22;4918827;28;21225;-33
2022/04/12 04:06:02;;;;;;;1.98;0.50;;;;;;;26.79;28.89;96276.44;4917468;28;20027;-32
2022/04/12 04:08:27;;;;;;;0.40;0.40;;;;;;;26.78;28.87;96274.75;4919449;28;20053;-29
2022/04/12 04:10:53;;;;;;;0.60;0.50;;;;;;;26.79;28.86;96270.31;4930967;28;20043;-29
2022/04/12 04:13:18;;;;;;;0.43;0.22;;;;;;;26.79;28.83;96268.56;4916357;28;20981;-32
2022/04/12 04:15:45;;;;;;;0.45;0.30;;;;;;;26.79;28.81;96270.31;4917606;28;20031;-28
2022/04/12 04:18:12;;;;;;;0.95;0.60;;;;;;;26.78;28.84;96268.66;4919654;28;20045;-30
2022/04/12 04:20:37;;;;;;;0.32;0.25;;;;;;;26.79;28.79;96268.56;4919689;28;20039;-28
2022/04/12 04:23:03;;;;;;;4.30;0.70;;;;;;;26.77;28.86;96267.78;4919714;28;20101;-30
2022/04/12 04:25:28;;;;;;;0.60;0.55;;;;;;;26.77;28.82;96262.53;4921460;28;20434;-30
2022/04/12 04:27:54;;;;;;;1.27;0.60;;;;;;;26.76;28.87;96263.50;4919269;28;20038;-29
2022/04/12 04:30:20;;;;;;;1.27;0.40;;;;;;;26.76;28.87;96266.13;4923896;28;20027;-29
2022/04/12 04:32:46;;;;;;;3.75;0.77;;;;;;;26.76;28.81;96263.50;4921362;28;20073;-33
2022/04/12 04:35:11;;;;;;;1.63;0.50;;;;;;;26.76;28.88;96270.56;4921545;28;20355;-33
2022/04/12 04:37:46;;;;;;;0.68;0.50;;;;;;;26.75;28.84;96264.44;4922033;28;20055;-30
2022/04/12 04:40:21;;;;;;;1.90;0.50;;;;;;;26.76;28.75;96266.13;4920247;28;20035;-33
2022/04/12 04:42:46;;;;;;;1.13;0.45;;;;;;;26.76;28.74;96270.56;4913279;28;20121;-30
2022/04/12 04:45:12;;;;;;;0.75;0.30;;;;;;;26.74;28.77;96268.84;4918557;28;20046;-29
2022/04/12 04:47:51;;;;;;;0.85;0.30;;;;;;;26.73;28.84;96264.53;4913717;28;20034;-28
2022/04/12 04:50:21;;;;;;;1.08;0.40;;;;;;;26.73;28.82;96266.31;4915347;28;20164;-30
2022/04/12 04:52:47;;;;;;;0.38;0.38;;;;;;;26.73;28.77;96271.56;4919334;28;20075;-28
2022/04/12 04:55:12;;;;;;;1.55;0.50;;;;;;;26.72;28.78;96264.63;4917082;28;20031;-30
2022/04/12 04:57:40;;;;;;;1.38;0.40;;;;;;;26.71;28.82;96266.44;4918551;28;20055;-30
2022/04/12 05:00:06;;;;;;;0.85;0.50;;;;;;;26.73;28.81;96271.56;4922741;28;20036;-29
2022/04/12 05:02:32;;;;;;;0.82;0.45;;;;;;;26.72;28.73;96270.75;4922020;28;21046;-29
2022/04/12 05:04:57;;;;;;;3.22;0.43;;;;;;;26.71;28.70;96273.47;4915841;28;20035;-31
2022/04/12 05:07:26;;;;;;;0.95;0.63;;;;;;;26.71;28.91;96268.22;4919478;28;20027;-29
2022/04/12 05:09:52;;;;;;;0.50;0.50;;;;;;;26.72;28.77;96262.00;4923689;28;20042;-32
2022/04/12 05:12:17;;;;;;;0.60;0.40;;;;;;;26.71;28.86;96268.22;4938826;28;20031;-29
2022/04/12 05:14:43;;;;;;;1.25;0.68;;;;;;;26.71;28.70;96268.22;4927083;28;20050;-30
2022/04/12 05:17:08;;;;;;;0.98;0.60;;;;;;;26.69;28.64;96265.69;4928339;28;20688;-29
2022/04/12 05:19:34;;;;;;;1.33;0.60;;;;;;;26.71;28.88;96262.94;4929236;28;20024;-34
2022/04/12 05:21:59;;;;;;;0.30;0.30;;;;;;;26.70;28.74;96271.78;4929433;28;20042;-31
2022/04/12 05:24:24;;;;;;;1.25;0.50;;;;;;;26.69;28.73;96273.56;4930184;28;20039;-33
2022/04/12 05:26:50;;;;;;;0.80;0.50;;;;;;;26.70;28.73;96269.16;4928171;28;20040;-29
2022/04/12 05:29:16;;;;;;;0.35;0.35;;;;;;;26.68;28.74;96273.66;4926924;28;20704;-29
2022/04/12 05:31:41;;;;;;;0.82;0.40;;;;;;;26.69;28.78;96275.38;4922964;28;20782;-30
2022/04/12 05:34:07;;;;;;;0.73;0.45;;;;;;;26.68;28.62;96277.13;4926703;28;20062;-33
2022/04/12 05:36:32;;;;;;;0.52;0.47;;;;;;;26.68;28.79;96278.91;4926157;28;20047;-30
2022/04/12 05:38:57;;;;;;;1.05;0.50;;;;;;;26.68;28.85;96285.03;4927324;28;20035;-32
2022/04/12 05:41:23;;;;;;;0.68;0.40;;;;;;;26.68;28.76;96284.16;4926606;28;20107;-28
2022/04/12 05:43:48;;;;;;;0.85;0.60;;;;;;;26.68;28.72;96294.69;4927966;28;20031;-31
2022/04/12 05:46:14;;;;;;;1.50;0.45;;;;;;;26.67;28.66;96293.00;4925750;28;20166;-33
2022/04/12 05:48:39;;;;;;;0.93;0.50;;;;;;;26.67;28.81;96293.00;4923029;28;20282;-29
2022/04/12 05:51:04;;;;;;;0.47;0.43;;;;;;;26.67;28.72;96290.38;4921285;28;20185;-25
2022/04/12 05:53:30;;;;;;;4.63;1.40;;;;;;;26.67;28.53;96295.63;4923703;28;20329;-32
2022/04/12 05:55:56;;;;;;;1.58;0.90;;;;;;;26.66;28.62;96292.16;4929492;28;20491;-29
2022/04/12 05:58:21;;;;;;;0.90;0.50;;;;;;;26.65;28.70;96292.28;4931514;28;20039;-33
2022/04/12 06:00:47;;;;;;;0.60;0.60;;;;;;;26.65;28.73;96292.28;4928143;28;20042;-29
2022/04/12 06:03:12;;;;;;;3.33;0.50;;;;;;;26.65;28.51;96289.66;4925884;28;20034;-30
2022/04/12 06:05:37;;;;;;;2.22;0.80;;;;;;;26.64;28.67;96287.94;4929272;28;20039;-30
2022/04/12 06:08:03;;;;;;;4.63;0.70;;;;;;;26.64;28.71;96285.31;4922725;28;20114;-32
2022/04/12 06:10:29;;;;;;;1.33;0.63;;;;;;;26.63;28.69;96276.59;4920307;28;20050;-32
2022/04/12 06:12:54;;;;;;;0.77;0.60;;;;;;;26.64;28.71;96282.69;4933965;28;20035;-32
2022/04/12 06:15:20;;;;;;;1.77;0.68;;;;;;;26.64;28.61;96282.69;4931466;28;21104;-28
2022/04/12 06:17:45;;;;;;;0.30;0.30;;;;;;;26.63;28.67;96276.59;4929925;28;20601;-29
2022/04/12 06:20:11;;;;;;;1.17;0.60;;;;;;;26.63;28.78;96278.38;4927788;28;20043;-31
2022/04/12 06:22:37;;;;;;;0.50;0.40;;;;;;;26.64;28.66;96277.41;4922060;28;20031;-31
2022/04/12 06:25:03;;;;;;;1.13;0.40;;;;;;;26.63;28.71;96283.63;4929073;28;20118;-28
2022/04/12 06:27:38;;;;;;;0.35;0.30;;;;;;;26.63;28.65;96283.63;4926910;28;20542;-30
2022/04/12 06:30:07;;;;;;;2.00;0.82;;;;;;;26.63;28.94;96281.00;4926017;28;20101;-31
2022/04/12 06:32:33;;;;;;;0.82;0.55;;;;;;;26.63;28.69;96281.00;4921696;28;20118;-28
2022/04/12 06:34:59;;;;;;;1.75;0.70;;;;;;;26.63;28.74;96283.63;4922681;28;20057;-30
2022/04/12 06:37:26;;;;;;;4.20;0.68;;;;;;;26.61;28.66;96281.94;4923878;28;20031;-28
2022/04/12 06:39:52;;;;;;;1.23;0.80;;;;;;;26.62;28.55;96285.44;4922921;28;20825;-29
2022/04/12 06:42:17;;;;;;;17.77;2.35;;;;;;;26.63;28.35;96297.63;4914351;28;20035;-31
2022/04/12 06:44:42;;;;;;;6.85;1.85;;;;;;;26.63;28.32;96294.13;4920096;28;20145;-30
2022/04/12 06:47:08;;;;;;;4.05;1.50;;;;;;;26.63;28.47;96291.50;4923522;28;20526;-30
2022/04/12 06:49:33;;;;;;;4.82;1.58;;;;;;;26.63;28.45;96291.50;4924958;28;20546;-29
2022/04/12 06:51:59;;;;;;;3.67;1.50;;;;;;;26.65;28.45;96294.91;4926469;28;20039;-29
2022/04/12 06:54:25;;;;;;;5.78;1.73;;;;;;;26.67;28.47;96298.25;4915551;28;20059;-33
2022/04/12 06:56:51;;;;;;;6.03;2.00;;;;;;;26.68;28.44;96294.69;4923742;28;20027;-33
2022/04/12 06:59:16;;;;;;;4.35;1.98;;;;;;;26.69;28.41;96291.13;4924207;28;20035;-30
2022/04/12 07:01:41;;;;;;;8.30;2.42;;;;;;;26.70;28.46;96287.56;4924577;28;20042;-33
2022/04/12 07:04:07;;;;;;;6.03;2.30;;;;;;;26.72;28.59;96285.66;4922931;28;20031;-29
2022/04/12 07:06:32;;;;;;;6.30;3.00;;;;;;;26.73;28.40;96282.06;4924969;28;20102;-33
2022/04/12 07:08:58;;;;;;;7.57;3.28;;;;;;;26.72;28.51;96280.41;4925792;28;20509;-31
2022/04/12 07:11:23;;;;;;;6.57;3.10;;;;;;;26.76;28.57;96286.31;4917844;28;20055;-35
2022/04/12 07:13:48;;;;;;;6.75;3.15;;;;;;;26.75;28.50;96285.47;4918055;28;20047;-34
2022/04/12 07:16:14;;;;;;;8.48;3.05;;;;;;;26.77;28.47;96283.56;4922687;28;20035;-29
2022/04/12 07:18:41;;;;;;;8.07;3.47;;;;;;;26.78;28.40;96280.03;4919468;28;20039;-28
2022/04/12 07:21:07;;;;;;;8.60;3.45;;;;;;;26.79;28.55;96292.22;4923858;28;20038;-31
2022/04/12 07:23:36;;;;;;;8.27;3.28;;;;;;;26.81;28.40;96284.22;4920033;28;20024;-29
2022/04/12 07:26:02;;;;;;;8.40;3.50;;;;;;;26.81;28.43;96290.31;4937755;28;20889;-31
2022/04/12 07:28:28;;;;;;;7.20;3.30;;;;;;;26.81;28.54;96290.31;4925494;28;20058;-29
2022/04/12 07:30:53;;;;;;;9.90;3.53;;;;;;;26.82;28.58;96284.13;4923693;28;20817;-30
2022/04/12 07:33:19;;;;;;;11.13;3.40;;;;;;;26.83;28.49;96291.06;4927728;28;20580;-29
2022/04/12 07:35:44;;;;;;;11.60;3.63;;;;;;;26.84;28.31;96284.84;4923690;28;20032;-30
2022/04/12 07:38:10;;;;;;;5.82;3.15;;;;;;;26.84;28.14;96295.38;4926410;28;20032;-29
2022/04/12 07:40:35;;;;;;;7.43;3.47;;;;;;;26.84;28.15;96284.84;4925991;28;20032;-30
2022/04/12 07:43:01;;;;;;;6.20;3.05;;;;;;;26.85;28.16;96290.97;4925062;28;20031;-30
2022/04/12 07:45:26;;;;;;;5.63;2.90;;;;;;;26.85;28.21;96296.22;4920997;28;20028;-29
2022/04/12 07:47:52;;;;;;;6.82;2.90;;;;;;;26.85;28.05;96297.06;4925671;28;20047;-29
2022/04/12 07:50:17;;;;;;;6.10;2.85;;;;;;;26.86;27.98;96293.47;4918936;28;20031;-29
2022/04/12 07:52:42;;;;;;;6.25;3.15;;;;;;;26.86;28.10;96298.72;4929135;28;20031;-30
2022/04/12 07:55:08;;;;;;;6.75;2.80;;;;;;;26.86;28.20;96290.84;4925438;28;20490;-30
2022/04/12 07:57:34;;;;;;;7.72;3.10;;;;;;;26.88;28.13;96290.75;4926770;28;20047;-30
2022/04/12 07:59:59;;;;;;;8.40;2.95;;;;;;;26.89;28.12;96302.97;4921047;28;20572;-29
2022/04/12 08:02:24;;;;;;;7.28;2.70;;;;;;;26.90;28.17;96299.41;4925101;28;20036;-32
2022/04/12 08:04:50;;;;;;;5.35;2.80;;;;;;;26.92;28.22;96301.94;4920356;28;20034;-30
2022/04/12 08:07:15;;;;;;;6.95;2.70;;;;;;;26.91;28.26;96301.06;4924503;28;20034;-31
2022/04/12 08:09:41;;;;;;;5.75;2.72;;;;;;;26.93;28.23;96303.59;4922239;28;20711;-31
2022/04/12 08:12:06;;;;;;;5.65;2.65;;;;;;;26.95;28.40;96291.22;4922095;28;20491;-31
2022/04/12 08:14:32;;;;;;;5.38;2.20;;;;;;;26.94;28.36;96289.50;4921698;28;20024;-30
2022/04/12 08:16:57;;;;;;;9.73;2.65;;;;;;;26.95;28.36;96291.22;4927283;28;20043;-32
2022/04/12 08:19:22;;;;;;;4.85;2.70;;;;;;;26.96;28.47;96288.50;4923397;28;20497;-33
2022/04/12 08:21:48;;;;;;;6.63;2.88;;;;;;;26.98;28.36;96293.66;4916799;28;20896;-29
2022/04/12 08:24:13;;;;;;;9.68;2.65;;;;;;;26.98;27.99;96291.03;4917625;28;20426;-27
2022/04/12 08:26:39;;;;;;;10.63;3.72;;;;;;;26.97;26.78;96294.59;4923998;28;20031;-29
2022/04/12 08:29:04;;;;;;;7.13;3.28;;;;;;;26.91;25.56;96289.69;4925752;28;20044;-30
2022/04/12 08:31:30;;;;;;;9.55;3.20;;;;;;;26.83;25.68;96282.31;4927431;28;20032;-30
2022/04/12 08:33:55;;;;;;;5.63;3.35;;;;;;;26.73;25.11;96274.19;4920904;28;20078;-28
2022/04/12 08:36:22;;;;;;;7.50;5.03;;;;;;;26.64;24.79;96266.91;4922889;28;20094;-31
2022/04/12 08:38:51;;;;;;;7.63;4.38;;;;;;;26.56;24.85;96276.16;4924150;28;20042;-30
2022/04/12 08:41:16;;;;;;;8.75;3.97;;;;;;;26.51;24.86;96278.25;4916635;28;20387;-29
2022/04/12 08:43:42;;;;;;;10.80;3.78;;;;;;;26.49;25.07;96280.09;4934547;28;20110;-34
2022/04/12 08:46:08;;;;;;;6.72;3.28;;;;;;;26.47;25.12;96271.50;4935284;28;20504;-32
2022/04/12 08:48:33;;;;;;;5.95;3.20;;;;;;;26.48;25.32;96273.16;4922553;28;20031;-31
2022/04/12 08:50:59;;;;;;;7.00;3.38;;;;;;;26.49;25.54;96274.84;4935011;28;20063;-29
2022/04/12 08:53:24;;;;;;;8.73;2.70;;;;;;;26.51;25.53;96274.75;4927728;28;20070;-31
2022/04/12 08:55:49;;;;;;;5.03;3.10;;;;;;;26.53;25.56;96273.72;4921477;28;20035;-30
2022/04/12 08:58:15;;;;;;;6.97;3.00;;;;;;;26.53;25.65;96271.09;4922148;28;20024;-29
2022/04/12 09:00:40;;;;;;;9.35;3.15;;;;;;;26.53;25.67;96265.84;4922484;28;20047;-30
2022/04/12 09:03:05;;;;;;;8.13;2.65;;;;;;;26.57;25.55;96280.47;4925520;28;20039;-31
2022/04/12 09:05:34;;;;;;;17.75;2.80;;;;;;;26.57;25.63;96283.09;4920982;28;20040;-34
2022/04/12 09:07:59;;;;;;;13.20;3.40;;;;;;;26.58;25.87;96273.44;4921360;28;20035;-29
2022/04/12 09:10:35;;;;;;;6.78;3.15;;;;;;;26.59;25.88;96281.19;4930999;28;20042;-34
2022/04/12 09:13:10;;;;;;;6.65;2.90;;;;;;;26.60;26.00;96272.38;4930970;28;20063;-30
2022/04/12 09:15:41;;;;;;;5.38;2.80;;;;;;;26.63;26.06;96275.75;4930692;28;20027;-30
2022/04/12 09:18:08;;;;;;;7.07;3.00;;;;;;;26.64;26.08;96277.41;4927544;28;20039;-31
2022/04/12 09:20:33;;;;;;;6.68;2.90;;;;;;;26.66;26.22;96278.19;4934058;28;20685;-30
2022/04/12 09:23:00;;;;;;;12.95;3.75;;;;;;;26.66;26.29;96265.03;4922844;28;20042;-32
2022/04/12 09:25:25;;;;;;;14.07;4.43;;;;;;;26.69;26.28;96270.09;4930765;28;20039;-31
2022/04/12 09:27:50;;;;;;;11.70;4.28;;;;;;;26.69;26.32;96264.84;4929512;28;20051;-28
2022/04/12 09:30:16;;;;;;;19.65;4.93;;;;;;;26.71;26.38;96268.22;4932108;28;20338;-33
2022/04/12 09:32:45;;;;;;;20.60;4.80;;;;;;;26.72;26.52;96264.63;4932684;28;20302;-33
2022/04/12 09:35:10;;;;;;;16.95;4.65;;;;;;;26.72;26.49;96254.97;4934190;28;20783;-32
2022/04/12 09:37:37;;;;;;;13.35;4.47;;;;;;;26.73;26.50;96251.38;4925819;28;20040;-30
2022/04/12 09:40:13;;;;;;;17.45;3.80;;;;;;;26.74;26.53;96253.06;4926205;28;20035;-35
2022/04/12 09:42:50;;;;;;;14.45;4.22;;;;;;;26.76;26.56;96244.25;4927364;28;20046;-32
2022/04/12 09:45:16;;;;;;;11.35;4.13;;;;;;;26.75;26.56;96240.78;4928130;28;20118;-31
2022/04/12 09:47:42;;;;;;;15.25;3.97;;;;;;;26.74;26.67;96237.31;4927254;28;20338;-29
2022/04/12 09:50:09;;;;;;;12.80;3.42;;;;;;;26.78;26.76;96240.59;4940593;28;20035;-32
2022/04/12 09:52:34;;;;;;;11.90;3.58;;;;;;;26.79;26.92;96229.13;4927983;28;20023;-33
2022/04/12 09:55:00;;;;;;;9.15;3.65;;;;;;;26.80;26.92;96236.06;4926856;28;20731;-36
2022/04/12 09:57:25;;;;;;;10.18;3.40;;;;;;;26.82;27.00;96231.56;4929738;28;20031;-33
2022/04/12 09:59:53;;;;;;;11.98;3.08;;;;;;;26.84;27.13;96242.78;4927283;28;20036;-30
2022/04/12 10:02:19;;;;;;;10.63;3.28;;;;;;;26.85;27.16;96233.97;4930874;28;20760;-28
2022/04/12 10:04:44;;;;;;;10.57;3.40;;;;;;;26.87;27.39;96242.59;4931886;28;20034;-28
2022/04/12 10:07:10;;;;;;;8.18;3.42;;;;;;;26.88;27.49;96240.78;4926007;28;20035;-29
2022/04/12 10:09:37;;;;;;;8.63;3.22;;;;;;;26.91;27.51;96242.38;4926165;28;20035;-30
2022/04/12 10:12:03;;;;;;;13.23;3.30;;;;;;;26.91;27.68;96239.75;4922907;28;20054;-31
2022/04/12 10:14:30;;;;;;;12.57;3.15;;;;;;;26.93;27.59;96240.50;4925993;28;20027;-31
2022/04/12 10:16:56;;;;;;;7.28;2.90;;;;;;;26.94;27.70;96235.19;4929151;28;20782;-33
2022/04/12 10:19:22;;;;;;;9.05;2.90;;;;;;;26.93;27.79;96232.63;4944452;28;20038;-30
2022/04/12 10:21:47;;;;;;;8.02;2.80;;;;;;;26.95;27.77;96228.97;4940339;28;20469;-30
2022/04/12 10:24:13;;;;;;;10.05;3.10;;;;;;;26.95;27.71;96231.59;4926740;28;20098;-31
2022/04/12 10:26:39;;;;;;;10.05;3.08;;;;;;;26.98;27.58;96227.91;4926437;28;20024;-30
2022/04/12 10:29:05;;;;;;;8.18;3.00;;;;;;;26.97;27.65;96221.81;4926910;28;20395;-31
2022/04/12 10:31:31;;;;;;;9.10;2.80;;;;;;;26.98;27.73;96222.66;4926635;28;20032;-30
2022/04/12 10:34:11;;;;;;;9.38;2.88;;;;;;;26.99;27.77;96219.06;4926410;28;20031;-33
2022/04/12 10:36:55;;;;;;;7.60;2.50;;;;;;;27.01;27.84;96214.56;4924793;28;20118;-32
2022/04/12 10:39:21;;;;;;;6.78;2.67;;;;;;;27.02;27.81;96218.03;4923969;28;20035;-30
2022/04/12 10:41:49;;;;;;;13.13;2.75;;;;;;;27.02;27.67;96218.88;4929587;28;20035;-31
2022/04/12 10:44:20;;;;;;;10.18;3.10;;;;;;;27.03;27.83;96210.03;4923518;28;20898;-31
2022/04/12 10:46:52;;;;;;;6.88;2.50;;;;;;;27.04;27.85;96210.91;4925374;28;20630;-29
2022/04/12 10:49:22;;;;;;;10.30;2.70;;;;;;;27.03;27.85;96210.03;4925225;28;20031;-33
2022/04/12 10:51:59;;;;;;;7.57;2.33;;;;;;;27.05;27.77;96196.78;4927591;28;20406;-29
2022/04/12 10:54:31;;;;;;;4.80;2.45;;;;;;;27.06;27.87;96199.31;4920392;28;20035;-29
2022/04/12 10:57:18;;;;;;;5.18;2.05;;;;;;;27.06;27.32;96199.31;4929123;28;20127;-29
2022/04/12 11:00:08;;;;;;;3.78;1.85;;;;;;;27.06;27.11;96194.06;4927777;28;20027;-29
2022/04/12 11:02:38;;;;;;;3.63;1.70;;;;;;;27.05;26.84;96189.75;4927557;28;20159;-29
2022/04/12 11:05:05;;;;;;;6.15;2.25;;;;;;;27.04;26.75;96179.34;4931500;28;20090;-34
2022/04/12 11:07:35;;;;;;;5.68;1.92;;;;;;;27.03;26.75;96175.84;4930777;28;20121;-27
2022/04/12 11:10:13;;;;;;;7.32;2.20;;;;;;;27.03;26.15;96175.03;4939761;28;20038;-30
2022/04/12 11:12:42;;;;;;;3.13;1.50;;;;;;;27.02;25.76;96176.81;4926485;28;20046;-30
2022/04/12 11:15:26;;;;;;;4.38;1.90;;;;;;;27.02;25.71;96182.06;4931876;28;20660;-30
2022/04/12 11:18:11;;;;;;;3.35;1.42;;;;;;;27.02;25.51;96168.06;4928892;28;20314;-30
2022/04/12 11:20:38;;;;;;;4.85;2.00;;;;;;;27.03;25.29;96177.66;4932290;28;20032;-29
2022/04/12 11:23:14;;;;;;;4.68;1.80;;;;;;;27.02;25.46;96173.31;4935278;28;20032;-31
2022/04/12 11:25:45;;;;;;;4.75;1.85;;;;;;;27.02;25.46;96179.44;4932772;28;20032;-32
2022/04/12 11:28:14;;;;;;;6.90;1.80;;;;;;;27.02;25.51;96173.31;4923389;28;20035;-33
2022/04/12 11:30:40;;;;;;;3.25;1.70;;;;;;;27.03;25.55;96178.50;4926192;28;20694;-31